createdAt,value
2019-02-17T00:01:19.780Z,20.20
2019-02-17T00:03:48.725Z,17.73
2019-02-17T00:06:18.082Z,15.97
2019-02-17T00:08:46.885Z,16.30
2019-02-17T00:11:15.725Z,15.53
2019-02-17T00:13:45.944Z,15.53
2019-02-17T00:16:14.949Z,15.73
2019-02-17T00:18:43.969Z,15.73
2019-02-17T00:21:12.960Z,15.33
2019-02-17T00:23:41.897Z,15.77
2019-02-17T00:26:10.639Z,14.63
2019-02-17T00:28:39.573Z,14.33
2019-02-17T00:31:08.409Z,14.87
2019-02-17T00:33:37.017Z,14.47
2019-02-17T00:36:06.217Z,14.83
2019-02-17T00:38:34.657Z,13.77
2019-02-17T00:41:03.519Z,13.77
2019-02-17T00:43:32.429Z,13.87
2019-02-17T00:46:00.997Z,12.37
2019-02-17T00:48:29.319Z,12.63
2019-02-17T00:50:57.953Z,13.00
2019-02-17T00:53:26.387Z,14.30
2019-02-17T00:55:55.120Z,14.03
2019-02-17T00:58:23.804Z,13.20
2019-02-17T01:00:52.501Z,13.57
2019-02-17T01:03:21.212Z,12.20
2019-02-17T01:05:50.537Z,13.83
2019-02-17T01:08:19.246Z,13.83
2019-02-17T01:10:47.908Z,15.80
2019-02-17T01:13:16.901Z,13.97
2019-02-17T01:15:45.358Z,13.20
2019-02-17T01:18:14.137Z,14.73
2019-02-17T01:20:42.552Z,12.97
2019-02-17T01:23:10.877Z,12.30
2019-02-17T01:25:40.909Z,12.03
2019-02-17T01:28:09.938Z,11.23
2019-02-17T01:30:38.197Z,11.67
2019-02-17T01:33:07.420Z,11.67
2019-02-17T01:35:37.081Z,11.53
2019-02-17T01:38:05.724Z,10.07
2019-02-17T01:40:34.542Z,10.63
2019-02-17T01:43:02.936Z,13.32
2019-02-17T01:45:32.633Z,10.93
2019-02-17T01:48:01.209Z,10.77
2019-02-17T01:50:29.952Z,10.50
2019-02-17T01:52:58.689Z,10.60
2019-02-17T01:55:27.576Z,11.67
2019-02-17T01:57:55.968Z,10.50
2019-02-17T02:00:24.443Z,10.85
2019-02-17T02:02:53.217Z,9.97
2019-02-17T02:05:21.649Z,10.40
2019-02-17T02:07:50.193Z,10.17
2019-02-17T02:10:19.325Z,10.63
2019-02-17T02:12:48.125Z,11.57
2019-02-17T02:15:17.116Z,11.53
2019-02-17T02:17:45.944Z,11.97
2019-02-17T02:20:14.372Z,11.53
2019-02-17T02:22:42.897Z,11.80
2019-02-17T02:25:12.623Z,10.40
2019-02-17T02:27:41.304Z,11.30
2019-02-17T02:30:10.219Z,10.90
2019-02-17T02:32:38.780Z,10.77
2019-02-17T02:35:07.116Z,10.63
2019-02-17T02:37:35.437Z,9.77
2019-02-17T02:40:04.133Z,8.87
2019-02-17T02:42:32.968Z,9.20
2019-02-17T02:45:01.709Z,9.37
2019-02-17T02:47:31.476Z,9.77
2019-02-17T02:50:00.255Z,9.77
2019-02-17T02:52:29.065Z,9.73
2019-02-17T02:54:57.679Z,9.97
2019-02-17T02:57:26.267Z,9.37
2019-02-17T02:59:54.970Z,9.23
2019-02-17T03:02:23.734Z,9.93
2019-02-17T03:04:52.673Z,9.50
2019-02-17T03:07:22.337Z,9.57
2019-02-17T03:09:50.938Z,9.33
2019-02-17T03:12:19.489Z,8.90
2019-02-17T03:14:47.978Z,7.93
2019-02-17T03:17:16.331Z,8.63
2019-02-17T03:19:44.938Z,8.60
2019-02-17T03:22:13.325Z,8.07
2019-02-17T03:24:42.105Z,8.47
2019-02-17T03:27:10.850Z,6.57
2019-02-17T03:29:39.753Z,7.23
2019-02-17T03:32:08.470Z,7.47
2019-02-17T03:34:38.013Z,7.70
2019-02-17T03:37:06.425Z,8.00
2019-02-17T03:39:35.034Z,7.83
2019-02-17T03:42:03.631Z,7.53
2019-02-17T03:44:32.509Z,9.70
2019-02-17T03:47:02.174Z,8.27
2019-02-17T03:49:31.962Z,7.93
2019-02-17T03:52:00.305Z,8.40
2019-02-17T03:54:28.792Z,8.60
2019-02-17T03:56:57.140Z,7.87
2019-02-17T03:59:25.389Z,9.47
2019-02-17T04:01:54.291Z,8.67
2019-02-17T04:04:23.129Z,7.70
2019-02-17T04:06:51.808Z,8.97
2019-02-17T04:09:20.346Z,7.97
2019-02-17T04:11:48.945Z,8.40
2019-02-17T04:14:17.399Z,7.63
2019-02-17T04:16:46.096Z,8.33
2019-02-17T04:19:14.724Z,7.87
2019-02-17T04:21:43.061Z,8.50
2019-02-17T04:24:11.617Z,8.10
2019-02-17T04:26:40.190Z,8.57
2019-02-17T04:29:10.310Z,8.30
2019-02-17T04:31:38.956Z,8.47
2019-02-17T04:34:07.763Z,8.93
2019-02-17T04:36:37.177Z,9.73
2019-02-17T04:39:05.691Z,9.33
2019-02-17T04:41:34.450Z,9.93
2019-02-17T04:44:02.817Z,12.07
2019-02-17T04:46:31.428Z,14.07
2019-02-17T04:49:00.059Z,15.00
2019-02-17T04:51:28.714Z,19.63
2019-02-17T04:53:57.973Z,18.30
2019-02-17T04:56:26.654Z,18.73
2019-02-17T04:58:55.750Z,17.10
2019-02-17T05:01:24.326Z,15.20
2019-02-17T05:03:52.821Z,14.83
2019-02-17T05:06:21.320Z,13.77
2019-02-17T05:08:49.677Z,13.57
2019-02-17T05:11:18.253Z,11.37
2019-02-17T05:13:47.053Z,12.10
2019-02-17T05:16:15.253Z,13.83
2019-02-17T05:18:43.807Z,13.20
2019-02-17T05:21:12.389Z,14.67
2019-02-17T05:23:40.814Z,17.23
2019-02-17T05:26:09.436Z,15.70
2019-02-17T05:28:37.874Z,13.33
2019-02-17T05:31:06.280Z,12.17
2019-02-17T05:33:35.048Z,13.20
2019-02-17T05:36:03.739Z,13.07
2019-02-17T05:38:32.566Z,12.43
2019-02-17T05:41:00.816Z,11.97
2019-02-17T05:43:29.185Z,12.50
2019-02-17T05:45:57.818Z,11.03
2019-02-17T05:48:26.497Z,11.20
2019-02-17T05:50:55.382Z,9.83
2019-02-17T05:53:24.064Z,9.73
2019-02-17T05:55:52.448Z,9.63
2019-02-17T05:58:20.974Z,10.50
2019-02-17T06:00:50.440Z,10.13
2019-02-17T06:03:18.929Z,10.00
2019-02-17T06:05:47.572Z,10.43
2019-02-17T06:08:15.819Z,10.77
2019-02-17T06:10:44.504Z,10.97
2019-02-17T06:13:13.150Z,10.13
2019-02-17T06:15:42.097Z,10.27
2019-02-17T06:18:10.730Z,10.47
2019-02-17T06:20:39.074Z,10.60
2019-02-17T06:23:07.697Z,9.50
2019-02-17T06:25:36.527Z,9.93
2019-02-17T06:28:05.465Z,9.83
2019-02-17T06:30:33.953Z,11.35
2019-02-17T06:33:02.732Z,10.10
2019-02-17T06:35:31.216Z,9.97
2019-02-17T06:37:59.567Z,9.67
2019-02-17T06:40:27.789Z,9.67
2019-02-17T06:42:56.108Z,9.47
2019-02-17T06:45:24.707Z,9.33
2019-02-17T06:47:54.277Z,11.03
2019-02-17T06:50:23.385Z,12.70
2019-02-17T06:52:52.131Z,10.23
2019-02-17T06:55:31.773Z,10.10
2019-02-17T06:58:00.173Z,9.97
2019-02-17T07:00:38.078Z,10.00
2019-02-17T07:03:06.784Z,9.97
2019-02-17T07:05:43.745Z,9.67
2019-02-17T07:08:12.013Z,11.10
2019-02-17T07:10:40.350Z,11.70
2019-02-17T07:13:08.849Z,15.50
2019-02-17T07:15:37.209Z,14.73
2019-02-17T07:18:05.553Z,12.83
2019-02-17T07:20:34.341Z,12.80
2019-02-17T07:23:02.700Z,13.43
2019-02-17T07:25:32.270Z,11.00
2019-02-17T07:28:00.603Z,11.50
2019-02-17T07:30:29.012Z,11.80
2019-02-17T07:32:57.770Z,11.87
2019-02-17T07:35:26.763Z,11.20
2019-02-17T07:37:55.222Z,10.90
2019-02-17T07:40:23.734Z,11.23
2019-02-17T07:42:52.097Z,11.57
2019-02-17T07:45:20.738Z,11.67
2019-02-17T07:47:49.417Z,10.67
2019-02-17T07:50:17.903Z,11.40
2019-02-17T07:52:46.953Z,10.93
2019-02-17T07:55:15.530Z,10.97
2019-02-17T07:57:44.002Z,12.17
2019-02-17T08:00:12.706Z,12.53
2019-02-17T08:02:41.340Z,11.20
2019-02-17T08:05:09.985Z,11.63
2019-02-17T08:07:38.446Z,12.13
2019-02-17T08:10:07.444Z,13.75
2019-02-17T08:12:37.303Z,14.63
2019-02-17T08:15:07.355Z,14.30
2019-02-17T08:17:36.581Z,14.40
2019-02-17T08:20:05.485Z,13.60
2019-02-17T08:22:34.193Z,15.67
2019-02-17T08:25:02.982Z,16.50
2019-02-17T08:27:31.509Z,15.77
2019-02-17T08:29:59.788Z,14.33
2019-02-17T08:32:28.363Z,16.10
2019-02-17T08:34:57.320Z,15.53
2019-02-17T08:37:26.205Z,14.67
2019-02-17T08:39:55.313Z,14.87
2019-02-17T08:42:23.886Z,13.80
2019-02-17T08:44:52.661Z,15.13
2019-02-17T08:47:21.530Z,13.80
2019-02-17T08:49:50.349Z,12.63
2019-02-17T08:52:18.945Z,15.73
2019-02-17T08:54:47.525Z,12.60
2019-02-17T08:57:15.977Z,12.37
2019-02-17T08:59:44.549Z,12.33
2019-02-17T09:02:13.277Z,11.33
2019-02-17T09:04:42.165Z,11.37
2019-02-17T09:07:10.426Z,11.47
2019-02-17T09:09:39.220Z,15.03
2019-02-17T09:12:07.714Z,14.73
2019-02-17T09:14:36.593Z,12.53
2019-02-17T09:17:06.111Z,15.10
2019-02-17T09:19:36.001Z,15.93
2019-02-17T09:22:04.785Z,13.53
2019-02-17T09:24:33.544Z,13.40
2019-02-17T09:27:02.385Z,12.17
2019-02-17T09:29:31.068Z,12.63
2019-02-17T09:31:59.717Z,14.67
2019-02-17T09:34:28.538Z,12.13
2019-02-17T09:36:57.326Z,9.87
2019-02-17T09:39:26.090Z,10.90
2019-02-17T09:41:54.595Z,13.20
2019-02-17T09:44:22.922Z,10.20
2019-02-17T09:46:51.340Z,10.87
2019-02-17T09:49:20.206Z,10.60
2019-02-17T09:51:49.087Z,10.10
2019-02-17T09:54:18.027Z,11.40
2019-02-17T09:56:46.815Z,10.83
2019-02-17T09:59:15.408Z,11.57
2019-02-17T10:01:44.133Z,13.53
2019-02-17T10:04:12.945Z,11.30
2019-02-17T10:06:41.816Z,12.67
2019-02-17T10:09:10.459Z,13.40
2019-02-17T10:11:39.197Z,15.37
2019-02-17T10:14:08.184Z,16.00
2019-02-17T10:16:37.583Z,16.30
2019-02-17T10:19:06.225Z,14.20
2019-02-17T10:21:35.173Z,13.30
2019-02-17T10:24:04.112Z,13.80
2019-02-17T10:26:32.520Z,14.47
2019-02-17T10:29:01.177Z,13.53
2019-02-17T10:31:29.846Z,12.40
2019-02-17T10:33:58.605Z,13.80
2019-02-17T10:36:27.405Z,14.47
2019-02-17T10:39:20.783Z,12.97
2019-02-17T10:41:51.680Z,13.20
2019-02-17T10:44:23.940Z,12.83
2019-02-17T10:47:13.854Z,13.03
2019-02-17T10:49:42.949Z,12.47
2019-02-17T10:52:13.125Z,13.03
2019-02-17T10:54:41.756Z,12.33
2019-02-17T10:57:10.520Z,11.80
2019-02-17T10:59:40.061Z,11.63
2019-02-17T11:02:09.217Z,11.50
2019-02-17T11:04:37.738Z,12.43
2019-02-17T11:07:06.442Z,12.93
2019-02-17T11:09:34.729Z,11.83
2019-02-17T11:12:03.212Z,13.20
2019-02-17T11:14:31.672Z,15.08
2019-02-17T11:17:01.777Z,14.27
2019-02-17T11:19:33.143Z,10.70
2019-02-17T11:22:04.526Z,17.93
2019-02-17T11:24:34.643Z,12.23
2019-02-17T11:27:03.685Z,11.00
2019-02-17T11:29:32.962Z,10.13
2019-02-17T11:32:03.460Z,11.47
2019-02-17T11:34:32.750Z,11.50
2019-02-17T11:37:02.002Z,9.77
2019-02-17T11:39:31.249Z,12.55
2019-02-17T11:41:59.892Z,11.37
2019-02-17T11:44:28.640Z,10.53
2019-02-17T11:46:57.164Z,11.07
2019-02-17T11:49:25.518Z,14.83
2019-02-17T11:51:54.168Z,10.50
2019-02-17T11:54:22.946Z,10.73
2019-02-17T11:56:51.848Z,10.37
2019-02-17T11:59:20.568Z,11.57
2019-02-17T12:01:49.516Z,10.27
2019-02-17T12:04:21.318Z,15.13
2019-02-17T12:06:50.311Z,14.03
2019-02-17T12:09:19.305Z,11.53
2019-02-17T12:11:47.991Z,8.60
2019-02-17T12:14:16.656Z,10.30
2019-02-17T12:16:45.352Z,10.80
2019-02-17T12:19:13.866Z,12.70
2019-02-17T12:21:48.035Z,11.93
2019-02-17T12:24:19.414Z,11.40
2019-02-17T12:27:07.144Z,10.87
2019-02-17T12:29:49.913Z,10.10
2019-02-17T12:32:24.074Z,10.33
2019-02-17T12:34:53.118Z,9.53
2019-02-17T12:37:23.089Z,10.07
2019-02-17T12:40:11.126Z,7.93
2019-02-17T12:42:40.413Z,9.10
2019-02-17T12:45:10.799Z,7.57
2019-02-17T12:47:40.351Z,9.20
2019-02-17T12:50:09.481Z,7.47
2019-02-17T12:52:46.782Z,7.03
2019-02-17T12:55:08.403Z,7.83
2019-02-17T12:57:37.141Z,7.97
2019-02-17T13:00:06.521Z,6.30
2019-02-17T13:02:35.069Z,5.93
2019-02-17T13:05:03.729Z,7.00
2019-02-17T13:07:32.136Z,7.40
2019-02-17T13:10:01.100Z,15.43
2019-02-17T13:12:29.465Z,11.20
2019-02-17T13:14:58.253Z,8.60
2019-02-17T13:17:27.248Z,9.00
2019-02-17T13:19:56.236Z,7.47
2019-02-17T13:22:25.097Z,7.33
2019-02-17T13:24:53.885Z,6.93
2019-02-17T13:27:22.267Z,5.60
2019-02-17T13:29:50.598Z,5.93
2019-02-17T13:32:19.084Z,6.00
2019-02-17T13:34:47.925Z,5.95
2019-02-17T13:37:16.705Z,5.90
2019-02-17T13:39:45.745Z,6.35
2019-02-17T13:42:14.714Z,5.30
2019-02-17T13:44:44.040Z,7.85
2019-02-17T13:47:13.053Z,8.13
2019-02-17T13:49:43.375Z,7.78
2019-02-17T13:52:13.229Z,6.87
2019-02-17T13:54:41.665Z,8.68
2019-02-17T13:57:10.769Z,8.20
2019-02-17T13:59:39.060Z,7.40
2019-02-17T14:02:07.553Z,6.53
2019-02-17T14:04:36.181Z,7.40
2019-02-17T14:07:08.337Z,7.15
2019-02-17T14:09:37.242Z,4.85
2019-02-17T14:12:05.978Z,5.15
2019-02-17T14:14:38.867Z,9.43
2019-02-17T14:17:07.933Z,9.20
2019-02-17T14:19:36.982Z,8.35
2019-02-17T14:22:05.670Z,6.03
2019-02-17T14:24:34.456Z,6.30
2019-02-17T14:27:03.638Z,6.50
2019-02-17T14:29:31.926Z,6.50
2019-02-17T14:32:01.772Z,5.47
2019-02-17T14:34:30.613Z,6.17
2019-02-17T14:36:59.386Z,6.05
2019-02-17T14:39:28.253Z,7.17
2019-02-17T14:41:56.838Z,7.83
2019-02-17T14:44:25.557Z,6.62
2019-02-17T14:46:54.369Z,6.50
2019-02-17T14:49:23.308Z,7.00
2019-02-17T14:51:52.052Z,5.78
2019-02-17T14:54:21.659Z,7.07
2019-02-17T14:56:50.317Z,8.57
2019-02-17T14:59:18.945Z,5.70
2019-02-17T15:02:11.802Z,7.67
2019-02-17T15:04:40.509Z,7.97
2019-02-17T15:07:09.069Z,7.03
2019-02-17T15:09:37.924Z,6.77
2019-02-17T15:12:12.218Z,7.00
2019-02-17T15:14:40.885Z,5.70
2019-02-17T15:17:09.234Z,7.10
2019-02-17T15:19:37.607Z,7.37
2019-02-17T15:22:06.057Z,7.87
2019-02-17T15:24:34.634Z,8.70
2019-02-17T15:27:03.265Z,8.07
2019-02-17T15:29:31.867Z,8.03
2019-02-17T15:32:00.421Z,8.33
2019-02-17T15:34:29.839Z,7.90
2019-02-17T15:36:58.397Z,8.53
2019-02-17T15:39:27.134Z,8.30
2019-02-17T15:41:55.870Z,13.53
2019-02-17T15:44:24.465Z,8.27
2019-02-17T15:46:52.989Z,8.60
2019-02-17T15:49:21.927Z,10.20
2019-02-17T15:51:50.920Z,7.67
2019-02-17T15:54:19.606Z,7.73
2019-02-17T15:56:48.181Z,8.13
2019-02-17T15:59:16.928Z,8.10
2019-02-17T16:01:45.609Z,8.63
2019-02-17T16:04:14.193Z,7.53
2019-02-17T16:06:42.706Z,6.93
2019-02-17T16:09:11.338Z,6.93
2019-02-17T16:11:39.695Z,9.23
2019-02-17T16:14:08.033Z,8.67
2019-02-17T16:16:36.859Z,8.20
2019-02-17T16:19:05.510Z,8.53
2019-02-17T16:21:34.844Z,10.23
2019-02-17T16:24:03.826Z,9.80
2019-02-17T16:26:32.116Z,9.90
2019-02-17T16:29:01.653Z,12.03
2019-02-17T16:31:30.201Z,11.70
2019-02-17T16:33:58.852Z,11.80
2019-02-17T16:36:27.108Z,11.20
2019-02-17T16:38:55.896Z,12.13
2019-02-17T16:41:24.235Z,13.40
2019-02-17T16:43:52.568Z,12.93
2019-02-17T16:46:21.241Z,15.43
2019-02-17T16:48:49.677Z,14.50
2019-02-17T16:51:18.321Z,15.50
2019-02-17T16:53:47.145Z,16.40
2019-02-17T16:56:15.477Z,16.30
2019-02-17T16:58:44.040Z,19.80
2019-02-17T17:01:12.681Z,15.33
2019-02-17T17:03:41.365Z,16.57
2019-02-17T17:06:09.960Z,15.83
2019-02-17T17:08:38.555Z,14.33
2019-02-17T17:11:06.920Z,15.30
2019-02-17T17:13:35.248Z,16.63
2019-02-17T17:16:04.031Z,16.00
2019-02-17T17:18:32.773Z,17.23
2019-02-17T17:21:01.414Z,17.37
2019-02-17T17:23:30.708Z,18.40
2019-02-17T17:26:04.996Z,16.80
2019-02-17T17:28:37.524Z,19.07
2019-02-17T17:31:06.014Z,16.93
2019-02-17T17:33:35.719Z,20.93
2019-02-17T17:36:04.632Z,21.83
2019-02-17T17:38:33.545Z,21.77
2019-02-17T17:41:02.518Z,22.93
2019-02-17T17:43:32.539Z,25.53
2019-02-17T17:46:01.626Z,24.63
2019-02-17T17:48:30.525Z,25.90
2019-02-17T17:50:59.159Z,25.50
2019-02-17T17:53:28.787Z,25.97
2019-02-17T17:55:57.343Z,25.67
2019-02-17T17:58:26.191Z,24.97
2019-02-17T18:00:55.209Z,23.20
2019-02-17T18:03:23.993Z,24.43
2019-02-17T18:05:52.563Z,25.40
2019-02-17T18:08:21.990Z,26.43
2019-02-17T18:10:51.989Z,28.43
2019-02-17T18:13:22.119Z,25.77
2019-02-17T18:15:50.982Z,27.37
2019-02-17T18:18:19.580Z,25.73
2019-02-17T18:20:49.057Z,23.90
2019-02-17T18:23:20.311Z,22.60
2019-02-17T18:25:51.080Z,23.70
2019-02-17T18:28:22.571Z,24.70
2019-02-17T18:30:52.657Z,26.10
2019-02-17T18:33:41.944Z,27.43
2019-02-17T18:36:11.184Z,30.80
2019-02-17T18:38:39.836Z,29.60
2019-02-17T18:41:08.511Z,28.70
2019-02-17T18:43:37.506Z,30.07
2019-02-17T18:46:05.821Z,31.40
2019-02-17T18:48:34.579Z,29.67
2019-02-17T18:51:03.081Z,29.50
2019-02-17T18:53:31.991Z,27.87
2019-02-17T18:56:00.322Z,28.90
2019-02-17T18:58:29.049Z,28.83
2019-02-17T19:00:57.621Z,28.43
2019-02-17T19:03:26.467Z,29.37
2019-02-17T19:05:55.073Z,29.83
2019-02-17T19:08:23.864Z,30.53
2019-02-17T19:10:52.678Z,28.60
2019-02-17T19:13:21.000Z,29.23
2019-02-17T19:15:49.667Z,29.70
2019-02-17T19:18:18.485Z,27.47
2019-02-17T19:20:47.356Z,28.03
2019-02-17T19:23:16.189Z,28.43
2019-02-17T19:25:44.424Z,28.67
2019-02-17T19:28:12.975Z,33.43
2019-02-17T19:30:41.585Z,39.33
2019-02-17T19:33:09.940Z,34.70
2019-02-17T19:35:41.964Z,41.73
2019-02-17T19:38:09.093Z,45.07
2019-02-17T19:40:37.880Z,47.40
2019-02-17T19:43:06.693Z,45.73
2019-02-17T19:45:36.053Z,45.23
2019-02-17T19:48:05.036Z,36.23
2019-02-17T19:50:34.221Z,44.97
2019-02-17T19:53:03.245Z,40.03
2019-02-17T19:55:32.321Z,40.03
2019-02-17T19:58:00.858Z,34.57
2019-02-17T20:00:29.829Z,37.67
2019-02-17T20:03:16.694Z,33.57
2019-02-17T20:05:52.025Z,32.80
2019-02-17T20:08:19.902Z,31.47
2019-02-17T20:10:48.187Z,27.77
2019-02-17T20:13:16.967Z,26.43
2019-02-17T20:15:45.519Z,25.73
2019-02-17T20:18:14.285Z,26.93
2019-02-17T20:20:46.917Z,23.20
2019-02-17T20:23:16.068Z,23.13
2019-02-17T20:25:44.683Z,24.77
2019-02-17T20:28:13.645Z,24.87
2019-02-17T20:30:42.421Z,23.30
2019-02-17T20:33:12.835Z,24.13
2019-02-17T20:35:41.650Z,30.17
2019-02-17T20:38:10.297Z,26.47
2019-02-17T20:40:38.912Z,29.33
2019-02-17T20:43:26.542Z,23.43
2019-02-17T20:45:55.688Z,22.43
2019-02-17T20:48:24.338Z,21.47
2019-02-17T20:50:53.325Z,23.40
2019-02-17T20:53:21.658Z,22.40
2019-02-17T20:55:52.032Z,22.40
2019-02-17T20:58:24.134Z,22.77
2019-02-17T21:00:55.121Z,22.23
2019-02-17T21:03:27.798Z,24.70
2019-02-17T21:05:57.358Z,27.10
2019-02-17T21:08:26.456Z,21.07
2019-02-17T21:10:57.492Z,22.33
2019-02-17T21:13:29.028Z,21.63
2019-02-17T21:15:58.745Z,18.73
2019-02-17T21:18:28.473Z,19.40
2019-02-17T21:20:56.949Z,19.83
2019-02-17T21:23:26.255Z,18.43
2019-02-17T21:25:57.181Z,19.33
2019-02-17T21:28:27.617Z,16.97
2019-02-17T21:30:56.096Z,18.70
2019-02-17T21:33:24.925Z,18.57
2019-02-17T21:35:53.345Z,16.87
2019-02-17T21:38:24.322Z,18.53
2019-02-17T21:40:53.277Z,17.37
2019-02-17T21:43:21.877Z,16.20
2019-02-17T21:45:51.313Z,17.17
2019-02-17T21:48:20.609Z,17.90
2019-02-17T21:50:49.197Z,19.50
2019-02-17T21:53:20.291Z,17.63
2019-02-17T21:55:51.412Z,19.00
2019-02-17T21:58:19.800Z,18.65
2019-02-17T22:00:49.076Z,16.20
2019-02-17T22:03:18.181Z,15.53
2019-02-17T22:05:47.820Z,14.93
2019-02-17T22:08:21.132Z,14.97
2019-02-17T22:10:50.582Z,15.50
2019-02-17T22:13:19.192Z,15.00
2019-02-17T22:15:48.203Z,15.50
2019-02-17T22:18:16.673Z,15.43
2019-02-17T22:20:45.525Z,16.23
2019-02-17T22:23:14.372Z,17.30
2019-02-17T22:25:46.947Z,16.77
2019-02-17T22:28:16.660Z,14.70
2019-02-17T22:30:45.277Z,16.90
2019-02-17T22:33:13.723Z,16.80
2019-02-17T22:35:42.937Z,19.87
2019-02-17T22:38:11.838Z,15.70
2019-02-17T22:40:45.925Z,16.93
2019-02-17T22:43:15.760Z,17.17
2019-02-17T22:45:44.527Z,15.63
2019-02-17T22:48:13.363Z,14.73
2019-02-17T22:50:41.888Z,13.87
2019-02-17T22:53:10.836Z,13.73
2019-02-17T22:55:39.556Z,14.07
2019-02-17T22:58:08.232Z,13.37
2019-02-17T23:00:55.994Z,13.40
2019-02-17T23:03:26.968Z,12.10
2019-02-17T23:05:55.473Z,11.33
2019-02-17T23:08:49.702Z,12.40
2019-02-17T23:11:18.392Z,11.60
2019-02-17T23:13:46.971Z,10.93
2019-02-17T23:16:15.980Z,11.97
2019-02-17T23:18:44.685Z,10.67
2019-02-17T23:21:13.809Z,10.27
2019-02-17T23:23:42.680Z,10.13
2019-02-17T23:26:12.209Z,10.50
2019-02-17T23:28:42.083Z,10.63
2019-02-17T23:31:10.584Z,10.23
2019-02-17T23:33:39.325Z,9.53
2019-02-17T23:36:07.865Z,10.83
2019-02-17T23:38:36.533Z,10.30
2019-02-17T23:41:05.038Z,10.43
2019-02-17T23:43:33.409Z,11.20
2019-02-17T23:46:01.778Z,10.37
2019-02-17T23:48:30.519Z,10.17
2019-02-17T23:50:59.445Z,11.63
2019-02-17T23:53:28.161Z,10.37
2019-02-17T23:55:56.837Z,10.83
2019-02-17T23:58:25.182Z,10.53
